Time;durP1;ratioP1;P1;durP2;ratioP2;P2;SDS_P1;SDS_P2;PMS_P1;PMS_P2;Temp;Humidity;BMP_temperature;BMP_pressure;BME280_temperature;BME280_humidity;BME280_pressure;Samples;Min_cycle;Max_cycle;Signal;HPM_P1;HPM_P2
2023/11/23 14:53:54;;;;;;;2.30;1.10;;;;;;;;;;5084715;22;20241;-79
2023/11/23 14:56:26;;;;;;;2.47;0.90;;;;;;;;;;5074767;28;20460;-80
2023/11/23 14:58:54;;;;;;;3.40;0.90;;;;;;;;;;5077176;28;20461;-80
2023/11/23 15:01:22;;;;;;;3.17;2.40;;;;;;;;;;5078041;28;20444;-78
2023/11/23 15:03:53;;;;;;;2.30;1.00;;;;;;;;;;5075851;28;20832;-79
2023/11/23 15:06:22;;;;;;;2.00;0.90;;;;;;;;;;5080965;28;20547;-78
2023/11/23 15:08:50;;;;;;;3.87;1.10;;;;;;;;;;5075547;28;20449;-80
2023/11/23 15:11:17;;;;;;;3.13;1.03;;;;;;;;;;5077627;28;20437;-78
2023/11/23 15:13:47;;;;;;;2.60;1.33;;;;;;;;;;5067824;28;20472;-79
2023/11/23 15:16:15;;;;;;;2.50;0.80;;;;;;;;;;5075210;28;20683;-80
2023/11/23 15:18:43;;;;;;;4.20;2.13;;;;;;;;;;5063919;28;20461;-80
2023/11/23 15:21:11;;;;;;;2.73;1.30;;;;;;;;;;5074440;28;20871;-79
2023/11/23 15:23:39;;;;;;;2.43;0.80;;;;;;;;;;5078979;28;20480;-78
2023/11/23 15:26:07;;;;;;;2.40;1.00;;;;;;;;;;5064576;28;20543;-79
2023/11/23 15:28:34;;;;;;;3.20;1.43;;;;;;;;;;5062300;28;21064;-80
2023/11/23 15:31:04;;;;;;;2.70;1.13;;;;;;;;;;5073198;28;20522;-79
2023/11/23 15:33:31;;;;;;;2.80;1.03;;;;;;;;;;5067154;28;20449;-79
2023/11/23 15:35:59;;;;;;;6.60;1.57;;;;;;;;;;5057970;28;20515;-79
2023/11/23 15:38:26;;;;;;;2.73;1.33;;;;;;;;;;5058767;28;20442;-80
2023/11/23 15:40:54;;;;;;;2.00;0.83;;;;;;;;;;5059218;28;20452;-77
2023/11/23 15:43:23;;;;;;;4.07;1.27;;;;;;;;;;5064668;28;20493;-80
2023/11/23 15:45:51;;;;;;;2.63;1.40;;;;;;;;;;5092944;28;20467;-78
2023/11/23 15:48:20;;;;;;;2.63;1.03;;;;;;;;;;5096413;28;20477;-78
2023/11/23 15:50:49;;;;;;;3.53;1.13;;;;;;;;;;5098655;28;20451;-79
2023/11/23 15:53:24;;;;;;;2.60;1.07;;;;;;;;;;5096292;28;20734;-78
2023/11/23 15:55:56;;;;;;;3.67;1.37;;;;;;;;;;5085945;28;20457;-80
2023/11/23 15:58:27;;;;;;;3.13;0.90;;;;;;;;;;5089887;28;20923;-78
2023/11/23 16:00:55;;;;;;;3.20;1.20;;;;;;;;;;5091700;28;20464;-79
2023/11/23 16:03:24;;;;;;;2.87;1.10;;;;;;;;;;5091297;28;20464;-79
2023/11/23 16:05:53;;;;;;;2.33;1.40;;;;;;;;;;5082600;28;20454;-78
2023/11/23 16:08:21;;;;;;;3.40;1.30;;;;;;;;;;5094447;28;20455;-79
2023/11/23 16:10:49;;;;;;;3.03;1.40;;;;;;;;;;5097416;28;20498;-79
2023/11/23 16:13:19;;;;;;;3.13;1.20;;;;;;;;;;5100358;28;20438;-79
2023/11/23 16:15:47;;;;;;;3.13;1.30;;;;;;;;;;5100754;28;20454;-79
2023/11/23 16:18:15;;;;;;;3.30;1.07;;;;;;;;;;5096822;28;20852;-79
2023/11/23 16:20:45;;;;;;;4.10;1.20;;;;;;;;;;5098684;28;20443;-79
2023/11/23 16:23:13;;;;;;;3.10;0.90;;;;;;;;;;5100267;28;20725;-79
2023/11/23 16:25:41;;;;;;;2.33;1.03;;;;;;;;;;5098924;28;20814;-79
2023/11/23 16:28:09;;;;;;;1.90;0.77;;;;;;;;;;5098776;28;20520;-79
2023/11/23 16:30:38;;;;;;;4.60;1.30;;;;;;;;;;5094953;28;20651;-79
2023/11/23 16:33:05;;;;;;;2.70;1.50;;;;;;;;;;5095596;28;20660;-80
2023/11/23 16:35:33;;;;;;;3.63;1.00;;;;;;;;;;5095220;28;20951;-79
2023/11/23 16:38:03;;;;;;;2.20;0.57;;;;;;;;;;5098014;28;20458;-79
2023/11/23 16:40:34;;;;;;;2.20;0.83;;;;;;;;;;5099106;28;20464;-78
2023/11/23 16:43:05;;;;;;;3.23;1.10;;;;;;;;;;5100587;28;20720;-78
2023/11/23 16:45:33;;;;;;;10.50;1.27;;;;;;;;;;5093890;28;20479;-79
2023/11/23 16:48:00;;;;;;;6.80;1.00;;;;;;;;;;5094234;28;20509;-79
2023/11/23 16:50:29;;;;;;;3.13;1.27;;;;;;;;;;5092069;28;20453;-79
2023/11/23 16:52:57;;;;;;;3.30;1.07;;;;;;;;;;5085501;28;20478;-77
2023/11/23 16:55:26;;;;;;;4.77;1.23;;;;;;;;;;5082232;28;20440;-79
2023/11/23 16:57:55;;;;;;;11.70;2.40;;;;;;;;;;5078586;28;20467;-79
2023/11/23 17:00:23;;;;;;;5.00;2.00;;;;;;;;;;5081485;28;20457;-78
2023/11/23 17:02:50;;;;;;;3.07;1.20;;;;;;;;;;5076600;28;20480;-77
2023/11/23 17:05:18;;;;;;;5.17;1.67;;;;;;;;;;5078780;28;20495;-79
2023/11/23 17:07:46;;;;;;;7.87;1.30;;;;;;;;;;5080590;28;20522;-79
2023/11/23 17:10:16;;;;;;;8.67;1.70;;;;;;;;;;5095361;28;20487;-80
2023/11/23 17:12:46;;;;;;;8.27;2.57;;;;;;;;;;5081761;28;20433;-81
2023/11/23 17:15:13;;;;;;;10.07;1.80;;;;;;;;;;5079565;28;20860;-79
2023/11/23 17:17:45;;;;;;;5.87;1.30;;;;;;;;;;5075585;28;20482;-78
2023/11/23 17:20:17;;;;;;;12.90;1.73;;;;;;;;;;5087606;28;20515;-78
2023/11/23 17:22:47;;;;;;;4.57;1.40;;;;;;;;;;5096412;28;20952;-79
2023/11/23 17:25:15;;;;;;;3.57;1.10;;;;;;;;;;5079676;28;20523;-78
2023/11/23 17:27:46;;;;;;;3.80;1.10;;;;;;;;;;5088799;28;20519;-80
2023/11/23 17:30:18;;;;;;;6.90;1.53;;;;;;;;;;5091118;28;20436;-79
2023/11/23 17:32:45;;;;;;;10.57;1.20;;;;;;;;;;5098716;28;20679;-80
2023/11/23 17:35:14;;;;;;;5.10;1.47;;;;;;;;;;5093938;28;20456;-80
2023/11/23 17:37:41;;;;;;;4.53;1.80;;;;;;;;;;5096737;28;20506;-81
2023/11/23 17:40:09;;;;;;;7.90;1.43;;;;;;;;;;5092325;28;20452;-78
2023/11/23 17:42:37;;;;;;;4.07;0.87;;;;;;;;;;5093812;28;20439;-80
2023/11/23 17:45:09;;;;;;;4.60;1.10;;;;;;;;;;5097025;28;20475;-78
2023/11/23 17:47:38;;;;;;;3.83;0.90;;;;;;;;;;5104321;28;20456;-79
2023/11/23 17:50:16;;;;;;;10.13;1.30;;;;;;;;;;5085961;28;20562;-80
2023/11/23 17:52:45;;;;;;;7.60;1.70;;;;;;;;;;5103442;28;20483;-79
2023/11/23 17:55:14;;;;;;;3.13;1.27;;;;;;;;;;5088850;28;20510;-78
2023/11/23 17:57:41;;;;;;;5.40;1.27;;;;;;;;;;5095150;28;20459;-80
2023/11/23 18:00:12;;;;;;;7.37;1.57;;;;;;;;;;5088396;28;20666;-80
2023/11/23 18:02:42;;;;;;;4.80;2.23;;;;;;;;;;5097692;28;20467;-80
2023/11/23 18:05:11;;;;;;;6.37;2.20;;;;;;;;;;5100669;28;20491;-80
2023/11/23 18:07:41;;;;;;;16.43;2.50;;;;;;;;;;5110260;28;20448;-80
2023/11/23 18:10:14;;;;;;;11.57;2.00;;;;;;;;;;5101995;28;20462;-81
2023/11/23 18:12:42;;;;;;;8.50;1.90;;;;;;;;;;5104400;28;20544;-81
2023/11/23 18:15:11;;;;;;;9.67;2.63;;;;;;;;;;5110720;28;20727;-79
2023/11/23 18:17:39;;;;;;;5.33;1.40;;;;;;;;;;5101817;28;20452;-80
2023/11/23 18:20:16;;;;;;;10.30;2.67;;;;;;;;;;5102083;28;20460;-79
2023/11/23 18:22:44;;;;;;;3.17;1.23;;;;;;;;;;5094882;28;20490;-81
2023/11/23 18:25:12;;;;;;;11.20;1.73;;;;;;;;;;5099898;28;20497;-80
2023/11/23 18:27:40;;;;;;;11.00;2.17;;;;;;;;;;5101316;28;20463;-80
2023/11/23 18:30:09;;;;;;;7.60;2.30;;;;;;;;;;5107809;28;20517;-78
2023/11/23 18:32:36;;;;;;;10.67;2.50;;;;;;;;;;5091219;28;20492;-80
2023/11/23 18:35:04;;;;;;;7.90;1.87;;;;;;;;;;5106280;28;20474;-80
2023/11/23 18:37:34;;;;;;;14.63;2.57;;;;;;;;;;5106091;28;20519;-80
2023/11/23 18:40:12;;;;;;;11.37;2.70;;;;;;;;;;5082726;28;20499;-80
2023/11/23 18:42:44;;;;;;;10.43;2.60;;;;;;;;;;5096253;28;20459;-79
2023/11/23 18:45:16;;;;;;;21.20;3.90;;;;;;;;;;5105136;28;20517;-79
2023/11/23 18:47:44;;;;;;;12.50;2.53;;;;;;;;;;5094334;28;20463;-78
2023/11/23 18:50:15;;;;;;;9.43;2.20;;;;;;;;;;5089431;28;20457;-81
2023/11/23 18:52:44;;;;;;;5.93;1.70;;;;;;;;;;5097869;28;20475;-80
2023/11/23 18:55:14;;;;;;;15.67;2.80;;;;;;;;;;5096305;28;20720;-81
2023/11/23 18:57:42;;;;;;;9.43;2.00;;;;;;;;;;5086256;28;20484;-80
2023/11/23 19:00:11;;;;;;;7.20;1.63;;;;;;;;;;5088784;28;20470;-83
2023/11/23 19:02:39;;;;;;;9.13;1.70;;;;;;;;;;5096886;28;20444;-79
2023/11/23 19:05:07;;;;;;;9.73;2.10;;;;;;;;;;5097657;28;20765;-80
2023/11/23 19:07:34;;;;;;;14.67;2.77;;;;;;;;;;5089367;28;20467;-81
2023/11/23 19:10:19;;;;;;;13.57;2.80;;;;;;;;;;5090581;28;20552;-79
2023/11/23 19:12:48;;;;;;;17.00;4.43;;;;;;;;;;5091356;28;21101;-80
2023/11/23 19:15:16;;;;;;;17.97;3.07;;;;;;;;;;5099819;28;20456;-79
2023/11/23 19:17:44;;;;;;;8.57;2.17;;;;;;;;;;5098995;28;20464;-79
2023/11/23 19:20:15;;;;;;;10.87;2.50;;;;;;;;;;5092091;28;20499;-80
2023/11/23 19:22:48;;;;;;;14.37;2.13;;;;;;;;;;5090553;28;20463;-80
2023/11/23 19:25:18;;;;;;;18.67;3.00;;;;;;;;;;5083069;28;20485;-79
2023/11/23 19:27:46;;;;;;;15.13;4.00;;;;;;;;;;5088601;28;20452;-79
2023/11/23 19:30:18;;;;;;;9.63;2.37;;;;;;;;;;5092072;28;20455;-81
2023/11/23 19:32:47;;;;;;;16.20;2.57;;;;;;;;;;5088377;28;20465;-80
2023/11/23 19:35:18;;;;;;;9.40;2.87;;;;;;;;;;5104011;28;20520;-80
2023/11/23 19:37:47;;;;;;;17.63;3.33;;;;;;;;;;5085970;28;20874;-80
2023/11/23 19:40:23;;;;;;;14.67;2.70;;;;;;;;;;5102060;28;20470;-80
2023/11/23 19:42:52;;;;;;;21.23;3.43;;;;;;;;;;5094119;28;20456;-79
2023/11/23 19:45:21;;;;;;;13.70;3.43;;;;;;;;;;5098046;28;20484;-79
2023/11/23 19:47:49;;;;;;;11.90;2.67;;;;;;;;;;5094284;28;20460;-79
2023/11/23 19:50:18;;;;;;;15.23;3.80;;;;;;;;;;5100235;28;20448;-79
2023/11/23 19:52:46;;;;;;;7.13;2.03;;;;;;;;;;5081675;28;20481;-79
2023/11/23 19:55:14;;;;;;;7.93;1.93;;;;;;;;;;5069514;28;20455;-78
2023/11/23 19:57:44;;;;;;;15.90;3.07;;;;;;;;;;5064742;28;20457;-80
2023/11/23 20:00:19;;;;;;;16.20;2.93;;;;;;;;;;5079302;28;20527;-81
2023/11/23 20:02:48;;;;;;;8.17;2.80;;;;;;;;;;5063927;28;20467;-80
2023/11/23 20:05:16;;;;;;;21.60;3.67;;;;;;;;;;5085365;28;20500;-80
2023/11/23 20:07:44;;;;;;;13.50;2.60;;;;;;;;;;5074726;28;20496;-80
2023/11/23 20:10:13;;;;;;;16.20;5.17;;;;;;;;;;5080459;28;20460;-79
2023/11/23 20:12:46;;;;;;;16.03;3.73;;;;;;;;;;5066338;28;20468;-81
2023/11/23 20:15:14;;;;;;;18.13;3.90;;;;;;;;;;5063223;28;20536;-79
2023/11/23 20:17:41;;;;;;;16.20;3.70;;;;;;;;;;5072695;28;20437;-79
2023/11/23 20:20:10;;;;;;;11.20;2.40;;;;;;;;;;5079098;28;20457;-79
2023/11/23 20:22:37;;;;;;;20.10;4.20;;;;;;;;;;5063407;28;20461;-79
2023/11/23 20:25:05;;;;;;;18.87;3.10;;;;;;;;;;5075534;28;20943;-79
2023/11/23 20:27:33;;;;;;;10.90;2.23;;;;;;;;;;5082069;28;20480;-78
2023/11/23 20:30:06;;;;;;;20.77;4.30;;;;;;;;;;5076126;28;20467;-80
2023/11/23 20:32:34;;;;;;;21.33;4.10;;;;;;;;;;5084779;28;20444;-78
2023/11/23 20:35:03;;;;;;;10.07;2.40;;;;;;;;;;5079080;28;20464;-79
2023/11/23 20:37:32;;;;;;;14.20;3.23;;;;;;;;;;5069634;28;20457;-78
2023/11/23 20:40:10;;;;;;;10.73;2.93;;;;;;;;;;5063870;28;20476;-77
2023/11/23 20:42:38;;;;;;;12.87;3.07;;;;;;;;;;5079111;28;20456;-77
2023/11/23 20:45:19;;;;;;;12.23;2.57;;;;;;;;;;5080543;28;20476;-77
2023/11/23 20:47:47;;;;;;;9.43;2.20;;;;;;;;;;5078040;28;20528;-78
2023/11/23 20:50:19;;;;;;;10.87;3.97;;;;;;;;;;5081925;28;20496;-78
2023/11/23 20:52:46;;;;;;;11.00;3.23;;;;;;;;;;5090106;28;20570;-78
2023/11/23 20:55:16;;;;;;;12.83;2.90;;;;;;;;;;5096756;28;20448;-79
2023/11/23 20:57:46;;;;;;;15.97;3.70;;;;;;;;;;5099057;28;20457;-78
2023/11/23 21:00:19;;;;;;;9.73;1.90;;;;;;;;;;5097577;28;20891;-77
2023/11/23 21:02:54;;;;;;;13.90;1.97;;;;;;;;;;5099138;28;20487;-79
2023/11/23 21:05:22;;;;;;;10.53;2.00;;;;;;;;;;5102864;28;20513;-78
2023/11/23 21:07:51;;;;;;;10.13;2.47;;;;;;;;;;5104560;28;20832;-77
2023/11/23 21:10:19;;;;;;;12.10;2.70;;;;;;;;;;5102343;28;20529;-77
2023/11/23 21:12:48;;;;;;;11.07;2.20;;;;;;;;;;5100449;28;20447;-77
2023/11/23 21:15:16;;;;;;;20.47;3.50;;;;;;;;;;5100237;28;20463;-78
2023/11/23 21:17:45;;;;;;;6.77;2.90;;;;;;;;;;5108491;28;20512;-78
2023/11/23 21:20:15;;;;;;;10.57;2.90;;;;;;;;;;5105943;28;20455;-76
2023/11/23 21:22:43;;;;;;;16.77;6.00;;;;;;;;;;5102001;28;20455;-77
2023/11/23 21:25:11;;;;;;;14.77;1.80;;;;;;;;;;5104356;28;20487;-77
2023/11/23 21:27:39;;;;;;;13.13;2.07;;;;;;;;;;5101797;28;20460;-78
2023/11/23 21:30:11;;;;;;;8.63;1.80;;;;;;;;;;5102632;28;20497;-78
2023/11/23 21:32:39;;;;;;;13.80;2.00;;;;;;;;;;5098800;28;20443;-78
2023/11/23 21:35:08;;;;;;;5.97;1.93;;;;;;;;;;5101095;28;20538;-77
2023/11/23 21:37:36;;;;;;;12.83;2.00;;;;;;;;;;5100014;28;20451;-77
2023/11/23 21:40:11;;;;;;;8.40;2.03;;;;;;;;;;5098520;28;20483;-78
2023/11/23 21:42:42;;;;;;;11.40;2.87;;;;;;;;;;5100605;28;20680;-78
2023/11/23 21:45:10;;;;;;;16.73;2.87;;;;;;;;;;5104907;28;20819;-78
2023/11/23 21:47:41;;;;;;;19.97;3.90;;;;;;;;;;5103392;28;20457;-77
2023/11/23 21:50:14;;;;;;;8.10;2.60;;;;;;;;;;5102461;28;20436;-76
2023/11/23 21:52:42;;;;;;;12.33;1.93;;;;;;;;;;5102213;28;20562;-78
2023/11/23 21:55:10;;;;;;;9.73;2.20;;;;;;;;;;5106083;28;20443;-79
2023/11/23 21:57:38;;;;;;;12.33;3.50;;;;;;;;;;5104211;28;20570;-77
2023/11/23 22:00:11;;;;;;;6.80;1.47;;;;;;;;;;5103058;28;20736;-77
2023/11/23 22:02:44;;;;;;;10.57;2.30;;;;;;;;;;5101811;28;20501;-77
2023/11/23 22:05:13;;;;;;;11.67;2.10;;;;;;;;;;5102592;28;20812;-77
2023/11/23 22:07:47;;;;;;;13.33;1.97;;;;;;;;;;5104462;28;20544;-78
2023/11/23 22:10:16;;;;;;;13.47;2.77;;;;;;;;;;5107341;28;20486;-78
2023/11/23 22:12:45;;;;;;;17.80;2.73;;;;;;;;;;5106433;28;20447;-78
2023/11/23 22:15:13;;;;;;;7.93;1.90;;;;;;;;;;5105283;28;20447;-77
2023/11/23 22:17:44;;;;;;;8.70;1.80;;;;;;;;;;5106059;28;20446;-77
2023/11/23 22:20:21;;;;;;;9.53;1.97;;;;;;;;;;5110431;28;20891;-79
2023/11/23 22:22:51;;;;;;;10.73;2.00;;;;;;;;;;5109519;28;20470;-77
2023/11/23 22:25:21;;;;;;;10.97;3.90;;;;;;;;;;5108768;28;20879;-78
2023/11/23 22:27:50;;;;;;;9.30;2.20;;;;;;;;;;5110251;28;20456;-78
2023/11/23 22:30:20;;;;;;;5.70;1.80;;;;;;;;;;5110182;28;20501;-78
2023/11/23 22:33:00;;;;;;;13.80;2.60;;;;;;;;;;5104419;28;20436;-79
2023/11/23 22:35:32;;;;;;;12.87;2.23;;;;;;;;;;5105198;28;20933;-78
2023/11/23 22:38:04;;;;;;;11.80;2.00;;;;;;;;;;5106338;28;20544;-76
2023/11/23 22:40:32;;;;;;;12.53;2.23;;;;;;;;;;5109174;28;20454;-77
2023/11/23 22:43:01;;;;;;;5.63;1.30;;;;;;;;;;5108072;28;20455;-77
2023/11/23 22:45:31;;;;;;;11.07;2.63;;;;;;;;;;5107520;28;20791;-78
2023/11/23 22:47:59;;;;;;;10.93;1.73;;;;;;;;;;5105955;28;20505;-76
2023/11/23 22:50:27;;;;;;;6.07;1.50;;;;;;;;;;5105638;28;20517;-77
2023/11/23 22:52:56;;;;;;;4.97;1.33;;;;;;;;;;5102848;28;20504;-78
2023/11/23 22:55:24;;;;;;;9.50;1.80;;;;;;;;;;5105549;28;20882;-77
2023/11/23 22:57:53;;;;;;;10.40;2.40;;;;;;;;;;5105381;28;20535;-77
2023/11/23 23:00:33;;;;;;;11.73;2.90;;;;;;;;;;5104266;28;20491;-79
2023/11/23 23:03:01;;;;;;;9.07;1.77;;;;;;;;;;5101899;28;20495;-77
2023/11/23 23:05:31;;;;;;;6.23;1.70;;;;;;;;;;5101847;28;20719;-78
2023/11/23 23:08:02;;;;;;;8.73;2.20;;;;;;;;;;5100528;28;20453;-76
2023/11/23 23:10:30;;;;;;;11.30;2.40;;;;;;;;;;5099052;28;20582;-77
2023/11/23 23:12:58;;;;;;;7.00;2.40;;;;;;;;;;5097687;28;20806;-76
2023/11/23 23:15:26;;;;;;;14.70;2.93;;;;;;;;;;5099106;28;20447;-78
2023/11/23 23:17:54;;;;;;;9.40;2.30;;;;;;;;;;5104278;28;20460;-77
2023/11/23 23:20:22;;;;;;;9.83;1.60;;;;;;;;;;5104876;28;20556;-77
2023/11/23 23:22:50;;;;;;;10.50;2.40;;;;;;;;;;5106019;28;20444;-77
2023/11/23 23:25:20;;;;;;;13.67;2.33;;;;;;;;;;5099989;28;20443;-77
2023/11/23 23:27:48;;;;;;;8.20;1.97;;;;;;;;;;5104413;28;20944;-76
2023/11/23 23:30:22;;;;;;;17.03;2.50;;;;;;;;;;5102766;28;20456;-76
2023/11/23 23:32:50;;;;;;;7.57;2.37;;;;;;;;;;5102450;28;20498;-77
2023/11/23 23:35:20;;;;;;;13.53;3.53;;;;;;;;;;5103651;28;20851;-77
2023/11/23 23:37:48;;;;;;;12.30;2.57;;;;;;;;;;5106288;28;20436;-78
2023/11/23 23:40:20;;;;;;;5.47;1.60;;;;;;;;;;5102589;28;20453;-77
2023/11/23 23:42:47;;;;;;;6.10;2.30;;;;;;;;;;5102630;28;20610;-76
2023/11/23 23:45:17;;;;;;;6.40;2.57;;;;;;;;;;5101802;28;20524;-78
2023/11/23 23:47:45;;;;;;;6.60;1.27;;;;;;;;;;5103929;28;21009;-78
2023/11/23 23:50:15;;;;;;;5.60;1.40;;;;;;;;;;5103787;28;20504;-77
2023/11/23 23:52:43;;;;;;;6.63;1.93;;;;;;;;;;5103855;28;20487;-77
2023/11/23 23:55:12;;;;;;;14.90;2.67;;;;;;;;;;5101451;28;20736;-77
2023/11/23 23:57:43;;;;;;;10.37;3.10;;;;;;;;;;5102119;28;20452;-77
